createdAt,value
2023-04-02T00:00:35.898Z,8.80
2023-04-02T00:03:05.877Z,9.40
2023-04-02T00:05:51.587Z,9.00
2023-04-02T00:08:28.440Z,9.90
2023-04-02T00:10:58.333Z,9.70
2023-04-02T00:13:46.817Z,10.30
2023-04-02T00:16:18.233Z,9.50
2023-04-02T00:18:48.989Z,9.90
2023-04-02T00:21:28.366Z,9.80
2023-04-02T00:23:57.180Z,9.40
2023-04-02T00:26:34.335Z,9.00
2023-04-02T00:29:03.796Z,9.40
2023-04-02T00:31:38.295Z,9.30
2023-04-02T00:34:08.395Z,10.20
2023-04-02T00:36:36.693Z,9.50
2023-04-02T00:39:11.299Z,9.80
2023-04-02T00:41:47.261Z,10.10
2023-04-02T00:44:22.129Z,9.30
2023-04-02T00:46:50.778Z,10.00
2023-04-02T00:49:33.098Z,10.10
2023-04-02T00:52:12.156Z,9.40
2023-04-02T00:54:51.871Z,8.80
2023-04-02T00:57:25.595Z,8.70
2023-04-02T01:00:05.870Z,9.00
2023-04-02T01:02:38.593Z,8.80
2023-04-02T01:05:18.031Z,9.60
2023-04-02T01:08:07.212Z,9.30
2023-04-02T01:11:09.861Z,9.60
2023-04-02T01:13:57.615Z,10.50
2023-04-02T01:16:36.585Z,9.80
2023-04-02T01:19:29.084Z,9.10
2023-04-02T01:22:07.316Z,9.00
2023-04-02T01:24:38.964Z,9.50
2023-04-02T01:27:33.335Z,9.50
2023-04-02T01:30:03.767Z,9.50
2023-04-02T01:32:34.073Z,10.20
2023-04-02T01:35:02.194Z,9.90
2023-04-02T01:37:49.533Z,9.00
2023-04-02T01:40:20.963Z,9.00
2023-04-02T01:43:04.296Z,8.50
2023-04-02T01:45:35.250Z,8.40
2023-04-02T01:48:34.303Z,9.40
2023-04-02T01:51:07.048Z,9.30
2023-04-02T01:53:35.987Z,9.60
2023-04-02T01:56:05.076Z,9.30
2023-04-02T01:58:34.374Z,9.20
2023-04-02T02:01:13.058Z,8.20
2023-04-02T02:03:43.215Z,8.90
2023-04-02T02:06:16.216Z,9.20
2023-04-02T02:09:04.635Z,9.90
2023-04-02T02:11:34.241Z,8.60
2023-04-02T02:14:23.020Z,9.80
2023-04-02T02:16:56.778Z,9.30
2023-04-02T02:19:44.027Z,8.80
2023-04-02T02:22:32.913Z,8.70
2023-04-02T02:25:03.023Z,9.40
2023-04-02T02:27:51.934Z,9.30
2023-04-02T02:30:38.605Z,9.40
2023-04-02T02:33:26.493Z,9.20
2023-04-02T02:36:00.956Z,9.10
2023-04-02T02:38:48.480Z,9.00
2023-04-02T02:41:49.068Z,8.10
2023-04-02T02:44:37.159Z,8.20
2023-04-02T02:47:16.927Z,10.10
2023-04-02T02:49:47.508Z,8.80
2023-04-02T02:52:27.307Z,9.50
2023-04-02T02:55:05.483Z,9.80
2023-04-02T02:58:07.173Z,8.80
2023-04-02T03:00:41.163Z,8.60
2023-04-02T03:03:12.784Z,9.00
2023-04-02T03:05:42.124Z,8.80
2023-04-02T03:08:21.767Z,9.60
2023-04-02T03:11:02.371Z,8.80
2023-04-02T03:13:35.863Z,9.60
2023-04-02T03:16:29.498Z,9.90
2023-04-02T03:19:13.237Z,8.60
2023-04-02T03:22:03.360Z,8.70
2023-04-02T03:24:58.643Z,8.30
2023-04-02T03:27:35.443Z,9.40
2023-04-02T03:30:18.648Z,9.10
2023-04-02T03:32:47.799Z,9.70
2023-04-02T03:35:32.991Z,10.60
2023-04-02T03:38:07.492Z,9.30
2023-04-02T03:40:40.271Z,8.70
2023-04-02T03:43:16.792Z,9.60
2023-04-02T03:45:49.328Z,10.80
2023-04-02T03:48:27.237Z,10.20
2023-04-02T03:51:04.572Z,11.10
2023-04-02T03:53:32.821Z,10.60
2023-04-02T03:56:01.228Z,10.90
2023-04-02T03:58:47.101Z,9.80
2023-04-02T04:01:32.125Z,9.30
2023-04-02T04:04:17.744Z,9.90
2023-04-02T04:06:48.084Z,10.00
2023-04-02T04:09:38.080Z,11.00
2023-04-02T04:12:19.456Z,11.40
2023-04-02T04:15:05.167Z,10.40
2023-04-02T04:18:02.564Z,10.20
2023-04-02T04:20:40.004Z,10.60
2023-04-02T04:23:10.833Z,10.60
2023-04-02T04:25:40.183Z,11.90
2023-04-02T04:28:24.479Z,11.40
2023-04-02T04:31:09.250Z,10.70
2023-04-02T04:33:50.727Z,10.90
2023-04-02T04:36:28.935Z,10.80
2023-04-02T04:39:14.747Z,11.30
2023-04-02T04:41:46.078Z,10.20
2023-04-02T04:44:23.756Z,10.50
2023-04-02T04:47:08.641Z,11.00
2023-04-02T04:50:17.161Z,12.00
2023-04-02T04:52:45.645Z,12.30
2023-04-02T04:55:26.538Z,11.10
2023-04-02T04:58:04.893Z,10.60
2023-04-02T05:00:49.967Z,10.80
2023-04-02T05:03:47.002Z,11.80
2023-04-02T05:06:32.065Z,11.50
2023-04-02T05:09:08.027Z,11.50
2023-04-02T05:11:39.946Z,10.90
2023-04-02T05:14:12.831Z,10.50
2023-04-02T05:16:46.273Z,10.60
2023-04-02T05:19:24.105Z,10.20
2023-04-02T05:22:18.205Z,10.70
2023-04-02T05:24:54.694Z,10.80
2023-04-02T05:27:27.532Z,10.60
2023-04-02T05:30:13.247Z,11.10
2023-04-02T05:32:48.023Z,10.80
2023-04-02T05:35:17.799Z,9.70
2023-04-02T05:37:46.806Z,10.00
2023-04-02T05:40:40.067Z,9.30
2023-04-02T05:43:10.737Z,9.80
2023-04-02T05:45:42.750Z,9.70
2023-04-02T05:48:17.780Z,9.20
2023-04-02T05:50:49.735Z,10.50
2023-04-02T05:53:49.159Z,9.20
2023-04-02T05:56:17.732Z,8.80
2023-04-02T05:58:53.476Z,8.70
2023-04-02T06:01:36.535Z,9.30
2023-04-02T06:04:16.518Z,8.90
2023-04-02T06:06:48.980Z,9.80
2023-04-02T06:09:24.577Z,9.30
2023-04-02T06:12:04.643Z,8.60
2023-04-02T06:14:35.214Z,8.40
2023-04-02T06:17:04.159Z,7.70
2023-04-02T06:19:36.224Z,8.30
2023-04-02T06:22:10.647Z,8.80
2023-04-02T06:24:38.965Z,9.10
2023-04-02T06:27:07.626Z,9.60
2023-04-02T06:29:40.910Z,9.00
2023-04-02T06:32:14.095Z,8.40
2023-04-02T06:34:45.513Z,8.40
2023-04-02T06:37:30.730Z,7.60
2023-04-02T06:40:44.974Z,7.50
2023-04-02T06:44:05.708Z,8.80
2023-04-02T06:46:53.465Z,6.90
2023-04-02T06:49:33.265Z,8.50
2023-04-02T06:52:06.040Z,7.30
2023-04-02T06:54:34.534Z,7.10
2023-04-02T06:57:08.493Z,6.80
2023-04-02T06:59:44.193Z,7.50
2023-04-02T07:02:30.744Z,6.60
2023-04-02T07:05:06.002Z,7.40
2023-04-02T07:07:36.188Z,6.00
2023-04-02T07:10:09.405Z,6.50
2023-04-02T07:12:38.239Z,6.40
2023-04-02T07:15:16.113Z,6.30
2023-04-02T07:17:48.697Z,6.30
2023-04-02T07:20:31.736Z,6.70
2023-04-02T07:25:32.085Z,7.50
2023-04-02T07:28:01.599Z,6.80
2023-04-02T07:30:31.497Z,5.80
2023-04-02T07:33:00.158Z,5.40
2023-04-02T07:35:28.610Z,5.90
2023-04-02T07:37:57.294Z,5.60
2023-04-02T07:40:26.268Z,6.20
2023-04-02T07:42:54.423Z,6.00
2023-04-02T07:45:22.697Z,6.00
2023-04-02T07:47:50.897Z,6.30
2023-04-02T07:50:19.260Z,10.20
2023-04-02T07:52:48.248Z,6.10
2023-04-02T07:55:18.678Z,8.50
2023-04-02T07:57:57.398Z,5.70
2023-04-02T08:00:26.752Z,5.90
2023-04-02T08:02:56.868Z,5.40
2023-04-02T08:05:26.629Z,5.50
2023-04-02T08:07:55.723Z,5.70
2023-04-02T08:10:24.226Z,5.10
2023-04-02T08:12:57.501Z,5.40
2023-04-02T08:15:25.936Z,5.40
2023-04-02T08:17:54.435Z,5.40
2023-04-02T08:20:23.564Z,5.40
2023-04-02T08:22:52.458Z,5.80
2023-04-02T08:25:20.847Z,5.70
2023-04-02T08:27:50.041Z,6.30
2023-04-02T08:30:18.832Z,6.20
2023-04-02T08:32:47.925Z,5.60
2023-04-02T08:35:16.610Z,5.50
2023-04-02T08:37:47.343Z,5.90
2023-04-02T08:40:23.326Z,5.10
2023-04-02T08:42:57.251Z,5.10
2023-04-02T08:45:42.550Z,5.50
2023-04-02T08:48:11.268Z,6.10
2023-04-02T08:50:41.595Z,5.80
2023-04-02T08:53:26.412Z,5.50
2023-04-02T08:56:05.529Z,5.50
2023-04-02T08:58:59.568Z,6.10
2023-04-02T09:01:37.239Z,6.20
2023-04-02T09:04:16.866Z,6.50
2023-04-02T09:06:47.168Z,6.30
2023-04-02T09:09:16.028Z,6.20
2023-04-02T09:12:03.136Z,6.20
2023-04-02T09:14:46.138Z,6.50
2023-04-02T09:17:22.339Z,6.30
2023-04-02T09:20:02.291Z,6.20
2023-04-02T09:22:32.197Z,6.90
2023-04-02T09:25:02.434Z,7.00
2023-04-02T09:27:36.786Z,6.90
2023-04-02T09:30:29.841Z,7.70
2023-04-02T09:33:02.214Z,7.30
2023-04-02T09:35:32.604Z,6.40
2023-04-02T09:38:09.989Z,5.90
2023-04-02T09:40:47.379Z,7.30
2023-04-02T09:43:18.622Z,7.50
2023-04-02T09:45:57.553Z,7.60
2023-04-02T09:48:30.460Z,8.20
2023-04-02T09:51:12.454Z,7.60
2023-04-02T09:53:49.465Z,6.90
2023-04-02T09:56:21.775Z,7.10
2023-04-02T09:59:13.164Z,5.80
2023-04-02T10:01:47.993Z,6.80
2023-04-02T10:04:31.749Z,6.80
2023-04-02T10:06:59.949Z,7.30
2023-04-02T10:09:30.792Z,7.70
2023-04-02T10:12:00.047Z,7.30
2023-04-02T10:14:38.914Z,5.80
2023-04-02T10:17:13.274Z,6.00
2023-04-02T10:19:43.858Z,5.10
2023-04-02T10:22:16.692Z,6.50
2023-04-02T10:24:46.350Z,6.50
2023-04-02T10:27:26.346Z,6.50
2023-04-02T10:30:02.706Z,6.40
2023-04-02T10:32:46.553Z,6.20
2023-04-02T10:35:29.770Z,5.00
2023-04-02T10:38:16.655Z,4.60
2023-04-02T10:41:21.314Z,4.40
2023-04-02T10:44:16.684Z,4.50
2023-04-02T10:47:02.192Z,4.80
2023-04-02T10:50:07.390Z,4.30
2023-04-02T10:52:40.101Z,4.60
2023-04-02T10:55:23.541Z,4.30
2023-04-02T10:57:52.275Z,3.50
2023-04-02T11:00:25.356Z,2.60
2023-04-02T11:03:07.386Z,2.60
2023-04-02T11:05:44.512Z,2.80
2023-04-02T11:08:22.029Z,3.10
2023-04-02T11:11:21.538Z,3.10
2023-04-02T11:14:06.387Z,2.90
2023-04-02T11:16:36.993Z,3.10
2023-04-02T11:19:16.648Z,2.60
2023-04-02T11:22:02.690Z,1.90
2023-04-02T11:24:38.392Z,1.90
2023-04-02T11:27:12.490Z,2.40
2023-04-02T11:30:16.435Z,2.30
2023-04-02T11:32:51.233Z,2.50
2023-04-02T11:35:31.986Z,2.60
2023-04-02T11:38:23.943Z,2.50
2023-04-02T11:40:54.914Z,2.10
2023-04-02T11:43:35.980Z,2.20
2023-04-02T11:57:56.741Z,1.80
2023-04-02T12:00:28.097Z,2.00
2023-04-02T12:03:25.140Z,2.50
2023-04-02T12:05:58.537Z,2.30
2023-04-02T12:08:36.232Z,2.00
2023-04-02T12:11:08.951Z,2.30
2023-04-02T12:13:38.737Z,2.50
2023-04-02T12:16:12.537Z,3.20
2023-04-02T12:18:53.200Z,4.20
2023-04-02T12:21:25.822Z,4.40
2023-04-02T12:23:54.556Z,4.10
2023-04-02T12:26:36.462Z,4.70
2023-04-02T12:29:20.463Z,4.80
2023-04-02T12:31:47.665Z,4.60
2023-04-02T12:34:19.629Z,4.60
2023-04-02T12:37:02.138Z,5.60
2023-04-02T12:39:30.408Z,5.60
2023-04-02T12:42:00.803Z,5.90
2023-04-02T12:44:29.263Z,6.30
2023-04-02T12:46:56.074Z,7.20
2023-04-02T12:49:37.666Z,7.80
2023-04-02T12:52:15.694Z,7.10
2023-04-02T12:54:53.265Z,5.80
2023-04-02T12:57:23.301Z,6.40
2023-04-02T12:59:51.028Z,7.30
2023-04-02T13:02:22.583Z,7.80
2023-04-02T13:04:57.029Z,7.30
2023-04-02T13:07:25.289Z,7.50
2023-04-02T13:09:53.689Z,7.70
2023-04-02T13:12:32.291Z,7.00
2023-04-02T13:15:00.569Z,6.90
2023-04-02T13:17:38.057Z,7.40
2023-04-02T13:20:31.528Z,7.60
2023-04-02T13:22:59.285Z,8.10
2023-04-02T13:25:35.529Z,7.80
2023-04-02T13:28:02.668Z,7.80
2023-04-02T13:30:35.563Z,8.20
2023-04-02T13:33:10.455Z,7.90
2023-04-02T13:35:37.279Z,6.00
2023-04-02T13:38:05.645Z,6.10
2023-04-02T13:40:33.411Z,6.40
2023-04-02T13:43:00.695Z,7.30
2023-04-02T13:45:36.080Z,7.10
2023-04-02T13:48:03.684Z,7.20
2023-04-02T13:50:32.418Z,7.10
2023-04-02T13:53:06.499Z,8.20
2023-04-02T13:55:38.071Z,7.20
2023-04-02T13:58:05.510Z,6.90
2023-04-02T14:00:37.089Z,7.00
2023-04-02T14:03:23.647Z,7.70
2023-04-02T14:06:12.904Z,7.10
2023-04-02T14:09:01.458Z,7.50
2023-04-02T14:11:59.743Z,8.00
2023-04-02T14:15:04.377Z,7.70
2023-04-02T14:17:36.279Z,6.80
2023-04-02T14:20:14.744Z,6.90
2023-04-02T14:23:10.367Z,7.80
2023-04-02T14:25:41.608Z,8.90
2023-04-02T14:28:26.594Z,8.50
2023-04-02T14:31:08.790Z,7.90
2023-04-02T14:33:42.835Z,8.10
2023-04-02T14:36:24.891Z,8.00
2023-04-02T14:39:17.232Z,7.40
2023-04-02T14:41:53.057Z,7.90
2023-04-02T14:44:23.015Z,8.80
2023-04-02T14:46:50.173Z,8.80
2023-04-02T14:49:29.785Z,8.50
2023-04-02T14:52:02.656Z,10.20
2023-04-02T14:54:37.320Z,8.40
2023-04-02T14:57:18.174Z,8.50
2023-04-02T15:00:32.559Z,7.70
2023-04-02T15:03:08.430Z,8.60
2023-04-02T15:05:42.604Z,9.10
2023-04-02T15:08:29.908Z,10.00
2023-04-02T15:11:20.841Z,10.30
2023-04-02T15:13:51.850Z,10.90
2023-04-02T15:16:20.722Z,10.00
2023-04-02T15:18:52.019Z,8.80
2023-04-02T15:21:18.683Z,9.10
2023-04-02T15:24:01.111Z,9.60
2023-04-02T15:26:34.927Z,9.50
2023-04-02T15:29:25.931Z,9.70
2023-04-02T15:32:03.815Z,10.20
2023-04-02T15:34:42.670Z,10.40
2023-04-02T15:37:38.945Z,9.80
2023-04-02T15:40:08.472Z,10.40
2023-04-02T15:42:39.248Z,9.80
2023-04-02T15:45:12.268Z,10.90
2023-04-02T15:47:47.962Z,10.50
2023-04-02T15:50:28.820Z,11.10
2023-04-02T15:53:00.663Z,10.90
2023-04-02T15:55:39.789Z,11.60
2023-04-02T15:58:12.565Z,9.60
2023-04-02T16:00:41.561Z,9.60
2023-04-02T16:03:26.982Z,9.10
2023-04-02T16:06:18.562Z,9.80
2023-04-02T16:08:58.119Z,10.30
2023-04-02T16:11:25.563Z,9.20
2023-04-02T16:14:27.301Z,9.40
2023-04-02T16:16:58.311Z,8.80
2023-04-02T16:19:27.367Z,7.90
2023-04-02T16:21:58.146Z,7.40
2023-04-02T16:24:25.656Z,7.40
2023-04-02T16:27:15.170Z,8.80
2023-04-02T16:29:54.608Z,9.30
2023-04-02T16:32:54.274Z,8.10
2023-04-02T16:35:43.214Z,9.10
2023-04-02T16:38:11.526Z,7.60
2023-04-02T16:41:06.928Z,7.50
2023-04-02T16:44:00.196Z,8.00
2023-04-02T16:46:38.860Z,7.00
2023-04-02T16:49:16.341Z,7.60
2023-04-02T16:54:18.700Z,7.40
2023-04-02T16:57:04.671Z,8.40
2023-04-02T16:59:45.657Z,8.70
2023-04-02T17:02:23.426Z,7.30
2023-04-02T17:05:12.665Z,7.60
2023-04-02T17:08:07.332Z,6.80
2023-04-02T17:10:59.117Z,8.10
2023-04-02T17:13:42.896Z,8.30
2023-04-02T17:16:27.626Z,8.70
2023-04-02T17:18:57.060Z,8.70
2023-04-02T17:21:25.746Z,8.20
2023-04-02T17:24:17.373Z,7.70
2023-04-02T17:26:47.184Z,7.60
2023-04-02T17:29:19.762Z,8.20
2023-04-02T17:31:48.717Z,7.20
2023-04-02T17:34:16.932Z,8.20
2023-04-02T17:36:43.715Z,8.10
2023-04-02T17:39:21.389Z,9.20
2023-04-02T17:41:59.426Z,7.80
2023-04-02T17:44:51.411Z,7.30
2023-04-02T17:47:56.080Z,7.20
2023-04-02T17:50:29.231Z,7.20
2023-04-02T17:53:12.772Z,8.70
2023-04-02T17:55:50.979Z,7.80
2023-04-02T17:58:18.005Z,8.10
2023-04-02T18:01:07.607Z,8.30
2023-04-02T18:03:47.140Z,8.80
2023-04-02T18:06:21.582Z,7.70
2023-04-02T18:09:11.062Z,7.60
2023-04-02T18:12:10.558Z,7.70
2023-04-02T18:15:05.344Z,7.80
2023-04-02T18:18:04.298Z,7.80
2023-04-02T18:20:39.151Z,8.50
2023-04-02T18:23:21.375Z,8.00
2023-04-02T18:26:17.803Z,8.00
2023-04-02T18:29:28.180Z,4.10
2023-04-02T18:31:59.523Z,6.00
2023-04-02T18:34:45.002Z,5.90
2023-04-02T18:37:43.906Z,5.30
2023-04-02T18:40:23.639Z,6.00
2023-04-02T18:43:21.566Z,5.30
2023-04-02T18:46:04.996Z,5.20
2023-04-02T18:48:56.263Z,5.40
2023-04-02T18:51:25.459Z,4.70
2023-04-02T18:54:01.003Z,4.10
2023-04-02T18:56:28.395Z,3.90
2023-04-02T18:59:20.608Z,4.40
2023-04-02T19:01:49.082Z,4.10
2023-04-02T19:04:22.063Z,4.00
2023-04-02T19:06:56.290Z,3.90
2023-04-02T19:09:30.604Z,4.30
2023-04-02T19:11:57.451Z,3.80
2023-04-02T19:14:26.659Z,3.90
2023-04-02T19:17:19.097Z,3.50
2023-04-02T19:19:55.368Z,4.40
2023-04-02T19:22:50.880Z,4.10
2023-04-02T19:25:57.455Z,4.00
2023-04-02T19:28:37.191Z,4.40
2023-04-02T19:31:34.097Z,4.30
2023-04-02T19:34:23.409Z,4.30
2023-04-02T19:37:13.600Z,4.10
2023-04-02T19:40:02.460Z,4.70
2023-04-02T19:42:53.677Z,3.90
2023-04-02T19:45:32.291Z,4.70
2023-04-02T19:48:15.203Z,4.90
2023-04-02T19:50:43.392Z,6.00
2023-04-02T19:53:12.591Z,5.60
2023-04-02T19:55:40.967Z,5.70
2023-04-02T19:58:30.340Z,5.80
2023-04-02T20:00:57.596Z,5.90
2023-04-02T20:03:25.148Z,5.70
2023-04-02T20:05:56.359Z,5.80
2023-04-02T20:08:27.442Z,5.50
2023-04-02T20:10:55.533Z,5.50
2023-04-02T20:13:25.733Z,6.20
2023-04-02T20:15:58.423Z,5.70
2023-04-02T20:18:25.974Z,5.40
2023-04-02T20:20:54.356Z,5.20
2023-04-02T20:23:22.633Z,5.90
2023-04-02T20:25:53.888Z,6.00
2023-04-02T20:28:22.412Z,6.30
2023-04-02T20:30:49.743Z,5.70
2023-04-02T20:33:17.713Z,5.90
2023-04-02T20:35:51.948Z,5.40
2023-04-02T20:38:19.478Z,5.50
2023-04-02T20:40:52.116Z,5.90
2023-04-02T20:43:22.060Z,6.10
2023-04-02T20:45:55.785Z,6.60
2023-04-02T20:48:23.528Z,6.30
2023-04-02T20:50:53.353Z,6.50
2023-04-02T20:53:20.397Z,6.80
2023-04-02T20:55:47.337Z,5.90
2023-04-02T20:58:16.572Z,5.50
2023-04-02T21:00:44.099Z,6.00
2023-04-02T21:03:12.429Z,6.30
2023-04-02T21:05:46.350Z,6.10
2023-04-02T21:08:13.390Z,5.90
2023-04-02T21:10:44.988Z,6.20
2023-04-02T21:13:12.754Z,5.70
2023-04-02T21:15:42.547Z,6.20
2023-04-02T21:18:10.816Z,5.50
2023-04-02T21:20:38.096Z,5.70
2023-04-02T21:23:05.038Z,6.00
2023-04-02T21:25:31.978Z,5.50
2023-04-02T21:27:58.921Z,5.90
2023-04-02T21:30:26.393Z,6.10
2023-04-02T21:32:53.968Z,6.80
2023-04-02T21:35:20.888Z,5.30
2023-04-02T21:37:47.624Z,6.30
2023-04-02T21:40:14.541Z,5.60
2023-04-02T21:42:41.709Z,6.00
2023-04-02T21:45:09.085Z,5.70
2023-04-02T21:47:35.902Z,6.20
2023-04-02T21:50:03.363Z,6.40
2023-04-02T21:52:30.525Z,6.30
2023-04-02T21:54:57.263Z,6.40
2023-04-02T21:57:24.144Z,6.30
2023-04-02T21:59:51.004Z,6.00
2023-04-02T22:02:17.799Z,7.30
2023-04-02T22:04:44.951Z,6.20
2023-04-02T22:07:11.692Z,6.90
2023-04-02T22:09:38.463Z,6.90
2023-04-02T22:12:07.426Z,7.10
2023-04-02T22:14:34.271Z,7.50
2023-04-02T22:17:02.917Z,6.90
2023-04-02T22:19:32.568Z,6.30
2023-04-02T22:21:59.712Z,6.90
2023-04-02T22:24:28.505Z,7.40
2023-04-02T22:26:56.989Z,6.90
2023-04-02T22:29:23.726Z,7.60
2023-04-02T22:31:51.597Z,7.20
2023-04-02T22:34:18.536Z,6.90
2023-04-02T22:36:45.280Z,7.10
2023-04-02T22:39:12.847Z,6.70
2023-04-02T22:41:39.833Z,7.60
2023-04-02T22:44:06.814Z,7.90
2023-04-02T22:46:34.102Z,7.20
2023-04-02T22:49:00.902Z,7.70
2023-04-02T22:51:28.520Z,7.10
2023-04-02T22:53:55.818Z,6.60
2023-04-02T22:56:26.009Z,7.50
2023-04-02T22:58:52.699Z,8.80
2023-04-02T23:01:22.061Z,8.50
2023-04-02T23:03:49.117Z,7.30
2023-04-02T23:06:16.857Z,8.90
2023-04-02T23:08:43.758Z,8.80
2023-04-02T23:11:18.088Z,7.20
2023-04-02T23:13:46.665Z,6.90
2023-04-02T23:16:14.066Z,7.20
2023-04-02T23:18:46.806Z,6.90
2023-04-02T23:21:13.962Z,7.50
2023-04-02T23:23:40.903Z,8.10
2023-04-02T23:26:12.665Z,7.80
2023-04-02T23:28:39.819Z,7.20
2023-04-02T23:31:08.664Z,7.80
2023-04-02T23:33:35.637Z,7.50
2023-04-02T23:36:10.610Z,7.90
2023-04-02T23:38:39.576Z,8.30
2023-04-02T23:41:06.403Z,7.40
2023-04-02T23:43:33.261Z,7.30
2023-04-02T23:46:00.718Z,7.90
2023-04-02T23:48:28.067Z,7.70
2023-04-02T23:50:55.220Z,7.40
2023-04-02T23:53:23.500Z,8.30
2023-04-02T23:55:54.109Z,7.50
2023-04-02T23:58:21.793Z,7.10
